Time;durP1;ratioP1;P1;durP2;ratioP2;P2;SDS_P1;SDS_P2;PMS_P1;PMS_P2;Temp;Humidity;BMP_temperature;BMP_pressure;BME280_temperature;BME280_humidity;BME280_pressure;Samples;Min_cycle;Max_cycle;Signal;HPM_P1;HPM_P2
2021/08/21 00:00:17;;;;;;;7.63;4.45;;;;;;;11.41;100.00;101775.13;5034033;28;20033;-76
2021/08/21 00:02:43;;;;;;;6.53;4.28;;;;;;;11.39;100.00;101782.31;5051129;28;20032;-76
2021/08/21 00:05:09;;;;;;;10.57;4.72;;;;;;;11.41;100.00;101783.00;5068372;28;20029;-76
2021/08/21 00:07:35;;;;;;;7.97;3.83;;;;;;;11.33;100.00;101780.19;5055473;28;20056;-77
2021/08/21 00:10:05;;;;;;;5.05;3.42;;;;;;;11.40;100.00;101786.59;5072160;28;20083;-76
2021/08/21 00:12:30;;;;;;;6.18;3.70;;;;;;;11.43;100.00;101788.13;5047913;28;20064;-77
2021/08/21 00:14:56;;;;;;;8.60;3.45;;;;;;;11.36;100.00;101781.72;5072845;28;20060;-77
2021/08/21 00:17:22;;;;;;;5.50;3.85;;;;;;;11.33;100.00;101782.00;5058616;28;20501;-76
2021/08/21 00:19:48;;;;;;;3.97;3.55;;;;;;;11.28;100.00;101784.97;5057318;28;20036;-77
2021/08/21 00:22:13;;;;;;;4.40;3.42;;;;;;;11.22;100.00;101780.22;5080373;28;20024;-77
2021/08/21 00:24:40;;;;;;;4.07;3.47;;;;;;;11.20;100.00;101782.97;5034678;28;20072;-77
2021/08/21 00:27:07;;;;;;;5.82;3.55;;;;;;;11.18;100.00;101784.91;5067730;28;20032;-77
2021/08/21 00:29:33;;;;;;;4.20;3.70;;;;;;;11.17;100.00;101788.50;5034160;28;20086;-77
2021/08/21 00:32:13;;;;;;;6.05;4.40;;;;;;;11.10;100.00;101782.91;5038534;28;20021;-77
2021/08/21 00:34:41;;;;;;;9.15;5.97;;;;;;;11.08;100.00;101787.44;5053219;28;20040;-77
2021/08/21 00:37:06;;;;;;;9.38;4.90;;;;;;;11.12;100.00;101790.66;5075057;28;20040;-77
2021/08/21 00:39:32;;;;;;;5.10;4.30;;;;;;;11.08;100.00;101791.88;5079686;22;20055;-75
2021/08/21 00:41:58;;;;;;;9.43;4.95;;;;;;;11.06;100.00;101791.16;5007613;23;20045;-76
2021/08/21 00:44:24;;;;;;;6.07;4.47;;;;;;;11.04;100.00;101790.47;5008811;28;20043;-77
2021/08/21 00:47:17;;;;;;;11.35;4.95;;;;;;;11.02;100.00;101792.34;4985961;28;20033;-77
2021/08/21 00:49:43;;;;;;;;;;;;;;;11.01;100.00;101791.50;4972801;28;20042;-76
2021/08/21 00:52:16;;;;;;;8.25;4.10;;;;;;;10.94;100.00;101787.72;4993512;28;19921;-76
2021/08/21 00:54:42;;;;;;;11.80;4.20;;;;;;;10.93;100.00;101791.31;4977382;28;20037;-77
2021/08/21 00:57:15;;;;;;;4.85;4.18;;;;;;;10.95;100.00;101791.19;4988065;28;20582;-76
2021/08/21 00:59:45;;;;;;;7.47;4.15;;;;;;;10.90;100.00;101794.16;4972415;28;20034;-75
2021/08/21 01:02:11;;;;;;;5.22;4.10;;;;;;;10.90;100.00;101796.78;4976766;28;20080;-77
2021/08/21 01:04:39;;;;;;;10.00;4.10;;;;;;;10.88;100.00;101798.72;4993086;28;20080;-76
2021/08/21 01:07:07;;;;;;;7.95;4.78;;;;;;;10.85;100.00;101799.81;4977410;28;20048;-76
2021/08/21 01:09:36;;;;;;;8.90;4.47;;;;;;;10.85;100.00;101799.81;4987856;28;20033;-79
2021/08/21 01:12:06;;;;;;;10.85;4.82;;;;;;;10.81;100.00;101801.00;4989087;28;20055;-77
2021/08/21 01:14:33;;;;;;;8.88;5.05;;;;;;;10.79;100.00;101797.66;4993693;28;20037;-78
2021/08/21 01:16:59;;;;;;;5.57;3.95;;;;;;;10.78;100.00;101790.75;4976742;28;20788;-77
2021/08/21 01:19:26;;;;;;;9.25;5.30;;;;;;;10.78;100.00;101795.16;4977178;28;20042;-77
2021/08/21 01:21:52;;;;;;;14.25;4.68;;;;;;;10.73;100.00;101784.19;4978233;28;20096;-77
2021/08/21 01:24:18;;;;;;;7.65;5.15;;;;;;;10.71;100.00;101786.94;4972061;28;20030;-78
2021/08/21 01:27:03;;;;;;;6.72;5.28;;;;;;;10.67;100.00;101775.00;4971727;28;20038;-77
2021/08/21 01:29:40;;;;;;;9.32;5.15;;;;;;;10.63;100.00;101782.28;4976479;28;20041;-75
2021/08/21 01:32:26;;;;;;;7.13;5.60;;;;;;;10.61;100.00;101776.34;4981079;28;20034;-77
2021/08/21 01:34:53;;;;;;;12.35;5.78;;;;;;;10.60;100.00;101776.44;4976096;28;20463;-76
2021/08/21 01:37:20;;;;;;;10.77;5.10;;;;;;;10.57;100.00;101772.28;4959610;28;20038;-77
2021/08/21 01:39:54;;;;;;;10.15;5.25;;;;;;;10.55;100.00;101779.44;4992252;28;20042;-78
2021/08/21 01:42:34;;;;;;;9.80;4.70;;;;;;;10.55;100.00;101781.22;4977285;28;20571;-77
2021/08/21 01:45:00;;;;;;;6.80;4.38;;;;;;;10.50;100.00;101782.41;4994879;28;20487;-76
2021/08/21 01:47:25;;;;;;;8.57;4.40;;;;;;;10.53;100.00;101778.75;4991820;28;20045;-77
2021/08/21 01:49:58;;;;;;;10.23;5.93;;;;;;;10.52;100.00;101784.94;4974954;28;20133;-75
2021/08/21 01:52:25;;;;;;;8.60;6.30;;;;;;;10.51;100.00;101791.97;4959758;28;20033;-77
2021/08/21 01:54:51;;;;;;;8.57;6.00;;;;;;;10.50;100.00;101789.47;4975391;28;20571;-77
2021/08/21 01:57:17;;;;;;;11.10;5.57;;;;;;;10.46;100.00;101782.78;4975116;28;20144;-76
2021/08/21 02:00:03;;;;;;;11.18;5.72;;;;;;;10.45;100.00;101779.34;4985658;28;20084;-76
2021/08/21 02:02:41;;;;;;;8.90;6.07;;;;;;;10.47;100.00;101779.19;4991438;28;20043;-75
2021/08/21 02:05:18;;;;;;;16.42;5.75;;;;;;;10.45;100.00;101775.88;4973221;28;20041;-76
2021/08/21 02:07:43;;;;;;;10.68;5.03;;;;;;;10.40;100.00;101776.25;4989679;28;20463;-78
2021/08/21 02:10:10;;;;;;;6.40;5.00;;;;;;;10.42;100.00;101778.75;4965403;28;20030;-77
2021/08/21 02:12:36;;;;;;;10.00;5.45;;;;;;;10.39;100.00;101781.59;4996286;28;20099;-77
2021/08/21 02:15:12;;;;;;;8.20;5.30;;;;;;;10.34;100.00;101781.97;4980133;28;20128;-77
2021/08/21 02:17:41;;;;;;;10.45;6.00;;;;;;;10.27;100.00;101778.13;4997461;28;20065;-75
2021/08/21 02:20:25;;;;;;;12.00;6.03;;;;;;;10.21;100.00;101775.94;4960794;28;20060;-77
2021/08/21 02:22:52;;;;;;;17.20;6.63;;;;;;;10.22;100.00;101788.13;4973149;28;20030;-77
2021/08/21 02:25:18;;;;;;;14.13;5.88;;;;;;;10.22;100.00;101782.88;4974373;28;20036;-76
2021/08/21 02:27:55;;;;;;;12.98;5.75;;;;;;;10.21;100.00;101774.19;4983458;28;20045;-77
2021/08/21 02:30:23;;;;;;;10.77;5.78;;;;;;;10.21;100.00;101774.19;4976549;28;20052;-77
2021/08/21 02:32:49;;;;;;;16.67;5.47;;;;;;;10.16;100.00;101778.13;4959300;28;20040;-77
2021/08/21 02:35:14;;;;;;;6.78;5.50;;;;;;;10.11;100.00;101773.22;4959528;28;20033;-77
2021/08/21 02:37:40;;;;;;;10.32;5.47;;;;;;;10.15;100.00;101764.16;4959417;28;20402;-77
2021/08/21 02:40:06;;;;;;;8.15;5.10;;;;;;;10.11;100.00;101773.22;4967106;28;20030;-78
2021/08/21 02:42:32;;;;;;;7.70;4.75;;;;;;;10.07;100.00;101762.13;4980773;28;20643;-77
2021/08/21 02:44:58;;;;;;;7.38;4.63;;;;;;;10.11;100.00;101771.44;4983569;28;20030;-79
2021/08/21 02:47:23;;;;;;;8.60;3.95;;;;;;;10.03;100.00;101767.75;4959686;28;20228;-77
2021/08/21 02:49:49;;;;;;;7.32;4.53;;;;;;;10.10;100.00;101774.19;4967402;28;20037;-76
2021/08/21 02:52:14;;;;;;;6.88;4.32;;;;;;;10.21;100.00;101771.56;4966891;28;20033;-80
2021/08/21 02:54:41;;;;;;;6.88;4.63;;;;;;;10.28;100.00;101783.25;4989661;28;20038;-77
2021/08/21 02:57:06;;;;;;;5.07;3.88;;;;;;;10.24;100.00;101786.22;4991748;28;20034;-76
2021/08/21 02:59:32;;;;;;;6.35;3.92;;;;;;;10.24;100.00;101781.78;4974712;28;20492;-77
2021/08/21 03:02:00;;;;;;;4.43;3.05;;;;;;;10.25;100.00;101791.34;4990540;28;20030;-77
2021/08/21 03:04:27;;;;;;;3.45;3.15;;;;;;;10.28;100.00;101783.25;4991284;28;20041;-77
2021/08/21 03:06:53;;;;;;;5.57;2.92;;;;;;;10.21;100.00;101787.31;4987286;28;20068;-77
2021/08/21 03:09:39;;;;;;;3.75;2.67;;;;;;;10.16;100.00;101788.59;4987921;28;20527;-77
2021/08/21 03:12:07;;;;;;;3.78;2.60;;;;;;;10.10;100.00;101782.88;4973181;28;20037;-77
2021/08/21 03:14:53;;;;;;;4.75;3.10;;;;;;;10.05;100.00;101792.88;4976942;28;20668;-77
2021/08/21 03:17:19;;;;;;;2.88;2.42;;;;;;;10.08;100.00;101797.88;4989649;28;20065;-76
2021/08/21 03:19:44;;;;;;;10.00;2.80;;;;;;;10.17;100.00;101806.84;4958974;28;20068;-76
2021/08/21 03:22:11;;;;;;;5.60;2.72;;;;;;;10.29;100.00;101798.03;4984085;28;20038;-76
2021/08/21 03:24:39;;;;;;;4.30;2.65;;;;;;;10.31;100.00;101808.44;4974346;28;20526;-77
2021/08/21 03:27:06;;;;;;;4.20;2.30;;;;;;;10.30;100.00;101804.09;4956515;28;20052;-75
2021/08/21 03:29:33;;;;;;;2.80;2.60;;;;;;;10.25;100.00;101809.69;4955941;28;20470;-75
2021/08/21 03:32:02;;;;;;;2.40;2.20;;;;;;;10.27;100.00;101812.22;4973669;28;20104;-76
2021/08/21 03:34:27;;;;;;;2.30;2.10;;;;;;;10.27;100.00;101820.91;4971445;28;20499;-79
2021/08/21 03:36:55;;;;;;;4.75;2.50;;;;;;;10.27;100.00;101817.47;4958351;28;20084;-77
2021/08/21 03:39:23;;;;;;;5.18;2.45;;;;;;;10.31;100.00;101821.53;4973951;28;20537;-76
2021/08/21 03:41:50;;;;;;;2.42;2.22;;;;;;;10.38;100.00;101827.13;4990147;28;20048;-75
2021/08/21 03:44:18;;;;;;;4.22;2.65;;;;;;;10.44;100.00;101811.75;4975380;28;20034;-76
2021/08/21 03:46:44;;;;;;;4.20;3.20;;;;;;;10.45;100.00;101828.31;4974728;28;20085;-77
2021/08/21 03:49:10;;;;;;;3.97;2.90;;;;;;;10.43;100.00;101817.13;4989317;28;20029;-76
2021/08/21 03:51:36;;;;;;;2.88;2.60;;;;;;;10.46;100.00;101825.59;4972073;28;20033;-77
2021/08/21 03:54:03;;;;;;;3.33;2.92;;;;;;;10.50;100.00;101828.81;4957587;28;20117;-76
2021/08/21 03:56:30;;;;;;;6.20;2.83;;;;;;;10.59;100.00;101835.16;4957416;28;20376;-77
2021/08/21 03:59:03;;;;;;;4.03;2.88;;;;;;;10.61;100.00;101828.81;4980840;28;20038;-77
2021/08/21 04:01:28;;;;;;;3.22;2.90;;;;;;;10.66;100.00;101831.91;4990665;28;20072;-77
2021/08/21 04:04:02;;;;;;;5.60;2.72;;;;;;;10.64;100.00;101823.34;4974214;28;20041;-76
2021/08/21 04:06:31;;;;;;;3.75;3.42;;;;;;;10.67;100.00;101823.06;4988314;28;20050;-77
2021/08/21 04:08:57;;;;;;;3.15;2.80;;;;;;;10.73;100.00;101826.19;4974058;28;20401;-77
2021/08/21 04:11:32;;;;;;;8.05;4.20;;;;;;;10.77;100.00;101833.66;4973748;28;20495;-76
2021/08/21 04:14:07;;;;;;;6.53;4.18;;;;;;;10.77;100.00;101828.44;4996233;28;20037;-76
2021/08/21 04:16:32;;;;;;;6.53;4.50;;;;;;;10.85;100.00;101835.69;4961690;28;20033;-77
2021/08/21 04:18:58;;;;;;;5.63;4.10;;;;;;;10.91;100.00;101833.44;4995249;28;20038;-77
2021/08/21 04:21:27;;;;;;;7.50;4.30;;;;;;;10.95;100.00;101830.56;4977447;28;20037;-76
2021/08/21 04:23:53;;;;;;;5.88;4.68;;;;;;;10.91;100.00;101833.44;4994076;28;20399;-78
2021/08/21 04:26:21;;;;;;;7.05;4.65;;;;;;;10.94;100.00;101834.97;4994033;28;20026;-77
2021/08/21 04:28:47;;;;;;;4.57;3.47;;;;;;;10.94;100.00;101821.00;4976622;28;20053;-76
2021/08/21 04:31:13;;;;;;;5.93;4.28;;;;;;;10.93;100.00;101827.22;4992351;28;20042;-77
2021/08/21 04:33:39;;;;;;;9.27;4.70;;;;;;;10.86;100.00;101825.06;4961329;28;20038;-76
2021/08/21 04:36:08;;;;;;;6.75;4.38;;;;;;;10.89;100.00;101837.13;4977433;28;20120;-77
2021/08/21 04:38:37;;;;;;;17.08;4.55;;;;;;;10.86;100.00;101829.50;4959475;28;20037;-76
2021/08/21 04:41:04;;;;;;;9.40;4.65;;;;;;;10.82;100.00;101822.81;4992202;28;20026;-76
2021/08/21 04:43:30;;;;;;;7.88;4.43;;;;;;;10.83;100.00;101833.22;4971717;28;20041;-78
2021/08/21 04:45:56;;;;;;;10.30;5.10;;;;;;;10.83;100.00;101829.72;4988908;28;20112;-79
2021/08/21 04:48:21;;;;;;;11.10;4.82;;;;;;;10.82;100.00;101820.19;4976501;28;20077;-77
2021/08/21 04:50:48;;;;;;;8.32;5.47;;;;;;;10.82;100.00;101826.28;4989486;28;20470;-75
2021/08/21 04:53:14;;;;;;;7.75;5.18;;;;;;;10.73;100.00;101819.13;4992205;28;20091;-77
2021/08/21 04:55:43;;;;;;;9.10;5.47;;;;;;;10.74;100.00;101827.81;4974838;28;20156;-78
2021/08/21 04:58:09;;;;;;;10.20;5.28;;;;;;;10.67;100.00;101828.31;4989966;28;20029;-79
2021/08/21 05:00:35;;;;;;;10.70;5.45;;;;;;;10.63;100.00;101826.91;4979503;28;20054;-79
2021/08/21 05:03:19;;;;;;;16.33;4.90;;;;;;;10.63;100.00;101826.91;4989947;28;20029;-77
2021/08/21 05:05:45;;;;;;;10.45;5.85;;;;;;;10.70;100.00;101829.88;4977098;28;20502;-78
2021/08/21 05:08:11;;;;;;;7.68;5.28;;;;;;;10.79;100.00;101830.94;4953873;28;20107;-77
2021/08/21 05:10:40;;;;;;;10.95;6.05;;;;;;;10.89;100.00;101839.75;4962397;28;20034;-78
2021/08/21 05:13:06;;;;;;;11.07;6.10;;;;;;;10.96;100.00;101840.09;5002247;28;20040;-76
2021/08/21 05:15:33;;;;;;;10.88;6.28;;;;;;;11.14;100.00;101857.00;4994193;28;20037;-79
2021/08/21 05:18:24;;;;;;;10.27;6.18;;;;;;;11.23;100.00;101856.28;5005393;28;20045;-76
2021/08/21 05:20:54;;;;;;;9.65;6.35;;;;;;;11.32;100.00;101856.47;4991800;28;20033;-78
2021/08/21 05:23:21;;;;;;;11.07;5.95;;;;;;;11.37;100.00;101856.94;4959118;28;20034;-77
2021/08/21 05:25:48;;;;;;;15.23;7.25;;;;;;;11.40;100.00;101851.47;4990448;28;20434;-76
2021/08/21 05:28:17;;;;;;;16.85;7.82;;;;;;;11.45;100.00;101859.78;4975840;28;20095;-76
2021/08/21 05:30:43;;;;;;;12.15;6.53;;;;;;;11.47;100.00;101863.97;5008599;28;20091;-76
2021/08/21 05:33:16;;;;;;;12.75;7.50;;;;;;;11.62;100.00;101861.88;4992778;28;20475;-78
2021/08/21 05:35:42;;;;;;;12.85;6.60;;;;;;;11.78;100.00;101879.84;4977192;28;20487;-76
2021/08/21 05:38:09;;;;;;;15.63;7.63;;;;;;;11.85;100.00;101869.66;4993927;28;20037;-77
2021/08/21 05:40:35;;;;;;;13.63;8.55;;;;;;;12.06;100.00;101874.97;4969382;28;20045;-75
2021/08/21 05:43:01;;;;;;;17.48;8.35;;;;;;;12.24;100.00;101883.06;4976875;28;20072;-77
2021/08/21 05:45:28;;;;;;;16.02;9.85;;;;;;;12.40;100.00;101872.94;4994059;28;20034;-79
2021/08/21 05:47:54;;;;;;;15.45;8.13;;;;;;;12.60;100.00;101876.50;4993064;28;20065;-77
2021/08/21 05:50:21;;;;;;;17.25;9.68;;;;;;;12.73;100.00;101875.41;5009806;28;20147;-77
2021/08/21 05:52:47;;;;;;;15.98;9.80;;;;;;;12.87;100.00;101876.88;4963582;28;20072;-77
2021/08/21 05:55:13;;;;;;;12.75;9.38;;;;;;;12.96;100.00;101871.63;4992913;28;20042;-77
2021/08/21 05:57:46;;;;;;;15.30;9.35;;;;;;;13.02;100.00;101871.09;5008685;28;20059;-76
2021/08/21 06:00:13;;;;;;;16.92;10.20;;;;;;;13.10;100.00;101877.47;4976363;28;20030;-77
2021/08/21 06:02:42;;;;;;;19.45;10.55;;;;;;;13.15;100.00;101877.91;4960258;28;20034;-78
2021/08/21 06:05:11;;;;;;;15.57;9.43;;;;;;;13.17;100.00;101876.81;4992208;28;20545;-77
2021/08/21 06:07:38;;;;;;;16.02;10.82;;;;;;;13.28;100.00;101877.63;4992610;28;20049;-77
2021/08/21 06:10:09;;;;;;;20.30;10.27;;;;;;;13.36;100.00;101869.94;4992290;28;20080;-77
2021/08/21 06:12:35;;;;;;;13.00;9.05;;;;;;;13.36;100.00;101859.41;4995442;28;20033;-77
2021/08/21 06:15:02;;;;;;;12.93;8.55;;;;;;;13.42;100.00;101874.66;4996445;28;20117;-75
2021/08/21 06:17:28;;;;;;;13.77;9.02;;;;;;;13.52;100.00;101877.28;4992126;28;20030;-76
2021/08/21 06:19:56;;;;;;;14.50;9.60;;;;;;;13.58;100.00;101874.94;4973636;28;20045;-78
2021/08/21 06:22:21;;;;;;;12.10;8.48;;;;;;;13.66;100.00;101883.97;4954244;28;20033;-77
2021/08/21 06:24:47;;;;;;;11.88;8.32;;;;;;;13.69;100.00;101887.13;4992423;28;20030;-77
2021/08/21 06:27:12;;;;;;;12.00;7.88;;;;;;;13.73;100.00;101885.06;4975031;28;20137;-77
2021/08/21 06:29:38;;;;;;;13.55;7.93;;;;;;;13.75;100.00;101883.09;4991497;28;20042;-78
2021/08/21 06:32:07;;;;;;;15.18;8.68;;;;;;;13.84;100.00;101892.81;4973669;28;20455;-78
2021/08/21 06:34:35;;;;;;;11.80;7.38;;;;;;;13.89;100.00;101892.41;4956833;28;20067;-77
2021/08/21 06:37:02;;;;;;;9.57;7.72;;;;;;;13.95;100.00;101892.66;4989172;28;20045;-77
2021/08/21 06:39:28;;;;;;;10.60;7.38;;;;;;;14.00;100.00;101892.25;4992029;28;20038;-75
2021/08/21 06:41:53;;;;;;;10.98;7.30;;;;;;;14.06;100.00;101894.34;4988470;28;20041;-77
2021/08/21 06:44:19;;;;;;;9.13;6.70;;;;;;;14.12;100.00;101901.66;4979619;28;20849;-76
2021/08/21 06:46:45;;;;;;;8.80;6.53;;;;;;;14.16;100.00;101907.50;4975093;28;20045;-77
2021/08/21 06:49:11;;;;;;;9.57;5.50;;;;;;;14.22;100.00;101906.94;4984282;28;20034;-76
2021/08/21 06:51:36;;;;;;;11.48;5.90;;;;;;;14.28;100.00;101906.38;4979592;28;20534;-77
2021/08/21 06:54:02;;;;;;;8.15;6.43;;;;;;;14.28;100.00;101895.81;4991079;28;20041;-76
2021/08/21 06:56:27;;;;;;;8.07;6.22;;;;;;;14.35;100.00;101918.03;4974650;28;20068;-75
2021/08/21 06:58:53;;;;;;;10.27;5.93;;;;;;;14.43;100.00;101912.03;4990539;28;20116;-76
2021/08/21 07:01:18;;;;;;;8.77;5.50;;;;;;;14.46;100.00;101905.63;4988664;28;20076;-75
2021/08/21 07:03:44;;;;;;;11.95;5.88;;;;;;;14.58;100.00;101912.44;4981531;28;20037;-74
2021/08/21 07:06:10;;;;;;;7.90;5.82;;;;;;;14.63;100.00;101907.53;4974429;28;20463;-76
2021/08/21 07:08:35;;;;;;;6.32;4.97;;;;;;;14.66;100.00;101901.16;5007911;28;20096;-77
2021/08/21 07:11:01;;;;;;;7.38;5.22;;;;;;;14.66;100.00;101909.91;4996393;28;20076;-78
2021/08/21 07:13:28;;;;;;;7.85;5.13;;;;;;;14.69;100.00;101912.28;4995953;28;20045;-76
2021/08/21 07:15:54;;;;;;;7.97;4.88;;;;;;;14.77;100.00;101922.94;4976320;28;20577;-75
2021/08/21 07:18:20;;;;;;;8.52;4.35;;;;;;;14.86;100.00;101912.47;4955661;28;20034;-75
2021/08/21 07:20:46;;;;;;;6.88;3.92;;;;;;;14.87;100.00;101914.13;4992400;28;20025;-77
2021/08/21 07:23:11;;;;;;;4.82;3.75;;;;;;;14.90;98.43;101919.09;4975455;28;20407;-75
2021/08/21 07:25:37;;;;;;;7.38;3.33;;;;;;;14.93;98.78;101924.09;4989834;28;20116;-76
2021/08/21 07:28:03;;;;;;;4.78;3.50;;;;;;;14.96;97.88;101924.66;4982449;28;20174;-76
2021/08/21 07:30:29;;;;;;;4.70;4.15;;;;;;;14.90;97.93;101929.66;4989911;28;20038;-75
2021/08/21 07:32:54;;;;;;;5.32;3.50;;;;;;;14.96;99.59;101919.38;4955479;28;20506;-77
2021/08/21 07:35:20;;;;;;;8.00;3.72;;;;;;;15.06;100.00;101927.25;4974556;28;20031;-76
2021/08/21 07:37:46;;;;;;;9.63;3.95;;;;;;;15.18;98.13;101920.78;4974709;28;20034;-77
2021/08/21 07:40:12;;;;;;;4.18;3.33;;;;;;;15.25;97.33;101926.28;4972038;28;20030;-76
2021/08/21 07:42:38;;;;;;;6.70;3.47;;;;;;;15.38;96.27;101928.59;4988122;28;20037;-77
2021/08/21 07:45:05;;;;;;;6.20;3.45;;;;;;;15.43;95.91;101928.16;4972929;28;20148;-73
2021/08/21 07:47:30;;;;;;;4.50;3.03;;;;;;;15.47;95.27;101927.69;4959803;28;20045;-77
2021/08/21 07:49:56;;;;;;;7.18;3.13;;;;;;;15.44;94.95;101925.34;4961084;28;20046;-77
2021/08/21 07:52:22;;;;;;;5.05;2.60;;;;;;;15.50;94.32;101926.56;4996177;28;20503;-76
2021/08/21 07:54:47;;;;;;;3.72;2.90;;;;;;;15.68;98.16;101931.88;4996557;28;20491;-77
2021/08/21 07:57:13;;;;;;;4.88;2.60;;;;;;;15.77;92.87;101933.63;5013518;28;20037;-76
2021/08/21 07:59:38;;;;;;;4.47;2.38;;;;;;;15.85;91.93;101931.06;4996361;28;20084;-75
2021/08/21 08:02:05;;;;;;;4.43;2.55;;;;;;;15.80;90.35;101938.59;4990392;28;20399;-76
2021/08/21 08:04:31;;;;;;;5.43;2.50;;;;;;;15.82;91.23;101936.63;5010142;28;20059;-75
2021/08/21 08:06:56;;;;;;;4.68;2.30;;;;;;;15.87;89.48;101930.91;5015042;28;20414;-78
2021/08/21 08:09:22;;;;;;;4.55;2.40;;;;;;;15.96;91.78;101928.16;5020242;28;20086;-75
2021/08/21 08:11:47;;;;;;;4.35;2.38;;;;;;;16.00;90.24;101934.00;4988540;28;20038;-76
2021/08/21 08:14:15;;;;;;;2.40;1.90;;;;;;;16.12;91.14;101927.47;4985351;28;20041;-77
2021/08/21 08:16:40;;;;;;;2.42;2.00;;;;;;;16.28;88.48;101941.81;5013138;28;20058;-78
2021/08/21 08:19:06;;;;;;;4.43;2.22;;;;;;;16.39;88.79;101938.91;4977428;28;20123;-77
2021/08/21 08:21:31;;;;;;;3.53;2.10;;;;;;;16.41;87.28;101928.16;4993743;28;20061;-76
2021/08/21 08:23:57;;;;;;;3.63;1.48;;;;;;;16.38;85.82;101934.59;4976738;28;20053;-77
2021/08/21 08:26:23;;;;;;;1.83;1.73;;;;;;;16.51;86.54;101932.34;4974747;28;20454;-77
2021/08/21 08:28:49;;;;;;;9.05;2.00;;;;;;;16.52;87.27;101928.72;4991562;28;20099;-76
2021/08/21 08:31:16;;;;;;;4.20;1.70;;;;;;;16.63;87.42;101929.44;4976131;28;20829;-75
2021/08/21 08:33:42;;;;;;;2.97;1.73;;;;;;;16.84;86.61;101934.38;4965551;28;20095;-75
2021/08/21 08:36:08;;;;;;;3.17;1.70;;;;;;;17.01;86.93;101938.75;5009482;28;20049;-76
2021/08/21 08:38:36;;;;;;;2.08;1.30;;;;;;;17.06;85.32;101936.44;4987572;28;20034;-75
2021/08/21 08:41:02;;;;;;;2.08;1.33;;;;;;;17.15;84.45;101936.50;4991783;28;20107;-78
2021/08/21 08:43:29;;;;;;;3.63;1.60;;;;;;;17.12;85.01;101941.13;4972126;28;20104;-76
2021/08/21 08:45:55;;;;;;;4.70;1.45;;;;;;;17.18;83.72;101938.81;4978212;28;20046;-74
2021/08/21 08:48:21;;;;;;;4.35;1.35;;;;;;;17.23;84.32;101947.13;4976484;28;20125;-75
2021/08/21 08:50:48;;;;;;;2.53;1.45;;;;;;;17.32;82.81;101939.00;4976843;28;20046;-76
2021/08/21 08:53:14;;;;;;;3.75;1.40;;;;;;;17.40;83.13;101942.69;4993072;28;20049;-77
2021/08/21 08:55:40;;;;;;;3.00;1.50;;;;;;;17.49;83.59;101954.97;4975659;28;20040;-78
2021/08/21 08:58:06;;;;;;;4.35;1.40;;;;;;;17.45;84.33;101953.66;4955549;28;20152;-77
2021/08/21 09:00:33;;;;;;;4.90;1.73;;;;;;;17.61;83.29;101947.53;4977482;28;20044;-77
2021/08/21 09:03:02;;;;;;;1.73;1.42;;;;;;;17.83;83.36;101957.50;4990858;28;20056;-77
2021/08/21 09:05:36;;;;;;;2.70;1.20;;;;;;;17.83;79.75;101956.69;4961969;28;20415;-77
2021/08/21 09:08:02;;;;;;;2.25;1.40;;;;;;;17.83;80.07;101957.50;4990040;28;20084;-76
2021/08/21 09:10:32;;;;;;;4.22;1.35;;;;;;;17.93;83.22;101953.91;5009228;28;20468;-77
2021/08/21 09:13:13;;;;;;;2.97;1.33;;;;;;;17.99;79.65;101950.56;4957976;28;20034;-76
2021/08/21 09:15:41;;;;;;;3.75;1.30;;;;;;;17.99;81.02;101962.03;5005026;28;20038;-78
2021/08/21 09:18:13;;;;;;;5.50;1.40;;;;;;;17.98;83.39;101948.94;4984281;28;20487;-75
2021/08/21 09:20:51;;;;;;;;;;;;;;;17.95;78.54;101951.91;4971878;28;20045;-76
2021/08/21 09:23:24;;;;;;;1.83;1.20;;;;;;;18.03;79.67;101951.91;4994214;28;20383;-77
2021/08/21 09:26:13;;;;;;;1.95;1.00;;;;;;;18.18;80.63;101955.56;4972823;28;20034;-76
2021/08/21 09:28:41;;;;;;;2.67;1.25;;;;;;;18.38;81.38;101956.00;4981974;28;20038;-76
2021/08/21 09:31:10;;;;;;;2.15;1.27;;;;;;;18.62;78.00;101959.63;4960703;28;20053;-78
2021/08/21 09:33:41;;;;;;;2.92;1.42;;;;;;;18.62;77.79;101951.66;4991305;28;20034;-77
2021/08/21 09:36:13;;;;;;;3.22;1.45;;;;;;;18.67;77.70;101965.28;5008820;28;20038;-76
2021/08/21 09:38:40;;;;;;;3.88;1.27;;;;;;;18.64;77.79;101955.78;4957836;28;20062;-77
2021/08/21 09:41:07;;;;;;;1.98;1.20;;;;;;;18.66;78.04;101963.59;4957610;28;20030;-78
2021/08/21 09:43:36;;;;;;;1.55;1.10;;;;;;;18.72;78.25;101960.25;4977108;28;20029;-76
2021/08/21 09:46:20;;;;;;;4.70;1.48;;;;;;;18.70;76.79;101959.59;4999544;28;20037;-77
2021/08/21 09:49:11;;;;;;;1.50;1.00;;;;;;;18.57;76.53;101965.47;4976880;28;20407;-77
2021/08/21 09:51:38;;;;;;;2.00;1.00;;;;;;;18.48;77.05;101962.00;4971392;28;20037;-77
2021/08/21 09:54:07;;;;;;;2.45;0.95;;;;;;;18.54;76.31;101962.31;4977438;28;20450;-74
2021/08/21 09:56:35;;;;;;;3.38;0.95;;;;;;;18.52;75.63;101949.19;4977901;28;20108;-77
2021/08/21 09:59:02;;;;;;;3.03;0.98;;;;;;;18.72;77.13;101948.81;4992674;28;20125;-75
2021/08/21 10:01:29;;;;;;;2.95;0.70;;;;;;;18.77;77.63;101949.94;4977992;28;20065;-75
2021/08/21 10:03:57;;;;;;;1.45;0.70;;;;;;;18.82;75.37;101957.47;4991949;28;20067;-75
2021/08/21 10:06:23;;;;;;;3.83;0.93;;;;;;;18.73;77.77;101951.28;4979253;28;20064;-76
2021/08/21 10:08:53;;;;;;;2.20;0.80;;;;;;;18.85;77.70;101955.28;4992011;28;20088;-76
2021/08/21 10:11:22;;;;;;;1.88;0.90;;;;;;;18.99;77.19;101944.94;5001153;28;20030;-79
2021/08/21 10:13:48;;;;;;;1.48;0.90;;;;;;;18.95;76.47;101954.22;4979163;28;20096;-76
2021/08/21 10:16:14;;;;;;;1.48;0.73;;;;;;;18.92;73.36;101955.41;4993979;28;21611;-79
2021/08/21 10:18:41;;;;;;;2.95;0.80;;;;;;;19.00;73.93;101949.22;4978347;28;20121;-76
2021/08/21 10:21:07;;;;;;;3.33;0.90;;;;;;;19.01;75.21;101938.44;4959825;28;20100;-77
2021/08/21 10:23:34;;;;;;;1.08;0.73;;;;;;;19.17;75.81;101948.16;4975614;28;20033;-77
2021/08/21 10:26:11;;;;;;;2.72;1.20;;;;;;;19.38;73.57;101952.03;4992354;28;20034;-77
2021/08/21 10:28:41;;;;;;;2.28;0.98;;;;;;;19.38;73.41;101944.91;4976732;28;20450;-77
2021/08/21 10:31:06;;;;;;;2.03;0.98;;;;;;;19.20;72.11;101936.34;4973173;28;20070;-77
2021/08/21 10:33:55;;;;;;;2.15;0.80;;;;;;;19.18;74.97;101935.69;4995323;28;20059;-77
2021/08/21 10:36:44;;;;;;;2.30;0.90;;;;;;;19.57;73.21;101942.75;4975707;28;20044;-75
2021/08/21 10:39:33;;;;;;;3.13;0.60;;;;;;;19.94;67.32;101943.84;4972388;28;20430;-76
2021/08/21 10:42:26;;;;;;;2.33;0.70;;;;;;;20.10;67.82;101949.03;4999781;28;20046;-75
2021/08/21 10:44:57;;;;;;;2.50;0.70;;;;;;;20.30;67.58;101940.53;4988111;28;20037;-76
2021/08/21 10:47:32;;;;;;;2.15;0.82;;;;;;;20.29;68.43;101950.38;4959489;28;20037;-77
2021/08/21 10:50:28;;;;;;;2.60;0.70;;;;;;;20.58;65.60;101951.41;4978316;28;20048;-76
2021/08/21 10:52:55;;;;;;;2.25;0.73;;;;;;;20.66;67.19;101950.50;4946520;28;20565;-73
2021/08/21 10:55:33;;;;;;;1.23;0.80;;;;;;;20.50;66.69;101951.50;4988712;28;20026;-79
2021/08/21 10:58:14;;;;;;;4.45;0.90;;;;;;;20.56;65.71;101948.91;4977244;28;20029;-76
2021/08/21 11:00:41;;;;;;;3.92;0.65;;;;;;;20.57;66.79;101947.91;4958773;28;20034;-78
2021/08/21 11:03:08;;;;;;;2.22;0.77;;;;;;;20.31;63.00;101942.19;4963537;28;20042;-76
2021/08/21 11:05:56;;;;;;;3.53;0.88;;;;;;;20.45;62.92;101945.88;4995068;28;20085;-78
2021/08/21 11:08:28;;;;;;;3.13;0.68;;;;;;;20.65;63.87;101941.69;4975345;28;20068;-75
2021/08/21 11:14:23;;;;;;;2.60;1.05;;;;;;;20.95;63.83;101945.16;5008503;28;20037;-76
2021/08/21 11:16:53;;;;;;;1.48;0.73;;;;;;;20.91;60.63;101946.53;4986084;28;20054;-76
2021/08/21 11:19:25;;;;;;;1.80;0.80;;;;;;;20.56;63.39;101940.91;4965756;28;20038;-74
2021/08/21 11:21:51;;;;;;;4.45;1.00;;;;;;;20.36;63.30;101934.47;5005888;28;20026;-74
2021/08/21 11:24:28;;;;;;;2.45;0.70;;;;;;;20.15;67.04;101937.84;4966122;28;20038;-77
2021/08/21 11:27:22;;;;;;;4.45;0.80;;;;;;;20.17;68.70;101930.50;4990666;28;20045;-76
2021/08/21 11:30:09;;;;;;;2.13;0.70;;;;;;;20.38;64.41;101940.44;4989346;28;20049;-75